NKS1473 KMCO-SKRG
Flight info
| Callsign | NKS1473 |
|---|---|
| Flight time | 3h 12m |
| Altitude | 35000 |
| Route | DDANY3 VALKA DCT TRV DCT URSUS UP406 AKPEK AKPEK4C |
| Aircraft | A320/M-SDE3FGHIRWY/LB1 |
Departure
| Time | 2026-05-06 20:10 |
|---|---|
| Airport | Orlando International Airport (KMCO) |
Arrival
| Time | 2026-05-06 23:23 |
|---|---|
| Airport | Jose Maria Córdova International Airport (SKRG) |
| Time | Latitude | Longitude | Altitude | Speed | Heading |
|---|---|---|---|---|---|
| 2026-05-06 19:34 | 28.43362 | -81.31479 | 101 ft | 0 kts | 327° |
| 2026-05-06 20:00 | 28.43357 | -81.31474 | 102 ft | 2 kts | 326° |
| 2026-05-06 20:00 | 28.43340 | -81.31461 | 100 ft | 3 kts | 315° |
| 2026-05-06 20:00 | 28.43329 | -81.31445 | 101 ft | 3 kts | 279° |
| 2026-05-06 20:00 | 28.43329 | -81.31431 | 101 ft | 3 kts | 237° |
| 2026-05-06 20:05 | 28.43309 | -81.31467 | 100 ft | 10 kts | 237° |
| 2026-05-06 20:05 | 28.43268 | -81.31547 | 102 ft | 13 kts | 253° |
| 2026-05-06 20:05 | 28.43281 | -81.31657 | 102 ft | 15 kts | 281° |
| 2026-05-06 20:06 | 28.43259 | -81.31769 | 101 ft | 14 kts | 237° |
| 2026-05-06 20:06 | 28.43273 | -81.31840 | 101 ft | 12 kts | 345° |
| 2026-05-06 20:06 | 28.43364 | -81.31842 | 101 ft | 15 kts | 360° |
| 2026-05-06 20:06 | 28.43503 | -81.31842 | 104 ft | 22 kts | 358° |
| 2026-05-06 20:07 | 28.43657 | -81.31844 | 105 ft | 23 kts | 359° |
| 2026-05-06 20:07 | 28.43819 | -81.31846 | 106 ft | 23 kts | 359° |
| 2026-05-06 20:07 | 28.43980 | -81.31871 | 110 ft | 24 kts | 341° |
| 2026-05-06 20:07 | 28.44150 | -81.31900 | 107 ft | 26 kts | 360° |
| 2026-05-06 20:08 | 28.44317 | -81.31901 | 107 ft | 24 kts | 360° |
| 2026-05-06 20:08 | 28.44485 | -81.31903 | 105 ft | 23 kts | 360° |
| 2026-05-06 20:08 | 28.44657 | -81.31904 | 101 ft | 22 kts | 359° |
| 2026-05-06 20:08 | 28.44805 | -81.31919 | 103 ft | 21 kts | 329° |
| 2026-05-06 20:09 | 28.44826 | -81.32077 | 100 ft | 23 kts | 269° |
| 2026-05-06 20:09 | 28.44818 | -81.32211 | 100 ft | 14 kts | 245° |
| 2026-05-06 20:09 | 28.44775 | -81.32230 | 102 ft | 0 kts | 180° |
| 2026-05-06 20:09 | 28.44682 | -81.32231 | 103 ft | 44 kts | 180° |
| 2026-05-06 20:10 | 28.44152 | -81.32223 | 110 ft | 104 kts | 179° |
| 2026-05-06 20:10 | 28.43258 | -81.32215 | 102 ft | 151 kts | 179° |
| 2026-05-06 20:10 | 28.42152 | -81.32211 | 568 ft | 156 kts | 181° |
| 2026-05-06 20:10 | 28.41106 | -81.32209 | 1322 ft | 146 kts | 179° |
| 2026-05-06 20:11 | 28.40117 | -81.32197 | 1931 ft | 143 kts | 173° |
| 2026-05-06 20:11 | 28.39150 | -81.31861 | 2203 ft | 156 kts | 151° |
| 2026-05-06 20:11 | 28.38244 | -81.31004 | 2400 ft | 183 kts | 132° |
| 2026-05-06 20:11 | 28.37348 | -81.29861 | 2758 ft | 205 kts | 133° |
| 2026-05-06 20:12 | 28.36329 | -81.28596 | 3061 ft | 229 kts | 133° |
| 2026-05-06 20:12 | 28.35191 | -81.27195 | 3366 ft | 253 kts | 133° |
| 2026-05-06 20:12 | 28.33958 | -81.25687 | 3982 ft | 265 kts | 133° |
| 2026-05-06 20:12 | 28.32699 | -81.24145 | 4767 ft | 268 kts | 133° |
| 2026-05-06 20:13 | 28.31420 | -81.22580 | 5542 ft | 272 kts | 133° |
| 2026-05-06 20:13 | 28.30131 | -81.20979 | 6270 ft | 277 kts | 128° |
| 2026-05-06 20:13 | 28.29223 | -81.19051 | 6936 ft | 280 kts | 103° |
| 2026-05-06 20:13 | 28.28834 | -81.16869 | 7591 ft | 283 kts | 98° |
| 2026-05-06 20:14 | 28.28490 | -81.14654 | 8273 ft | 287 kts | 98° |
| 2026-05-06 20:14 | 28.28154 | -81.12438 | 8930 ft | 291 kts | 98° |
| 2026-05-06 20:14 | 28.27810 | -81.10164 | 9586 ft | 294 kts | 98° |
| 2026-05-06 20:14 | 28.27459 | -81.07857 | 10205 ft | 301 kts | 98° |
| 2026-05-06 20:15 | 28.27091 | -81.05436 | 10365 ft | 322 kts | 98° |
| 2026-05-06 20:15 | 28.26696 | -81.02859 | 10505 ft | 341 kts | 98° |
| 2026-05-06 20:15 | 28.26282 | -81.00170 | 10939 ft | 349 kts | 98° |
| 2026-05-06 20:15 | 28.25862 | -80.97445 | 11475 ft | 353 kts | 98° |
| 2026-05-06 20:16 | 28.25437 | -80.94686 | 12016 ft | 356 kts | 98° |
| 2026-05-06 20:16 | 28.25007 | -80.91902 | 12550 ft | 360 kts | 98° |
| 2026-05-06 20:16 | 28.24571 | -80.89096 | 13065 ft | 363 kts | 98° |
| 2026-05-06 20:16 | 28.24129 | -80.86261 | 13588 ft | 367 kts | 97° |
| 2026-05-06 20:17 | 28.23682 | -80.83408 | 14077 ft | 370 kts | 97° |
| 2026-05-06 20:17 | 28.23224 | -80.80520 | 14519 ft | 373 kts | 98° |
| 2026-05-06 20:17 | 28.22762 | -80.77607 | 14949 ft | 377 kts | 98° |
| 2026-05-06 20:17 | 28.22298 | -80.74662 | 15374 ft | 381 kts | 97° |
| 2026-05-06 20:18 | 28.21830 | -80.71686 | 15796 ft | 385 kts | 97° |
| 2026-05-06 20:18 | 28.21358 | -80.68685 | 16212 ft | 389 kts | 97° |
| 2026-05-06 20:18 | 28.20667 | -80.65704 | 16605 ft | 396 kts | 112° |
| 2026-05-06 20:18 | 28.19207 | -80.63095 | 16993 ft | 402 kts | 130° |
| 2026-05-06 20:19 | 28.17319 | -80.60739 | 17379 ft | 405 kts | 132° |
| 2026-05-06 20:19 | 28.15386 | -80.58391 | 17797 ft | 409 kts | 133° |
| 2026-05-06 20:19 | 28.13439 | -80.56022 | 18206 ft | 412 kts | 133° |
| 2026-05-06 20:19 | 28.11481 | -80.53634 | 18591 ft | 416 kts | 132° |
| 2026-05-06 20:20 | 28.09441 | -80.51290 | 18918 ft | 420 kts | 141° |
| 2026-05-06 20:20 | 28.06963 | -80.49535 | 19251 ft | 422 kts | 159° |
| 2026-05-06 20:20 | 28.04192 | -80.48436 | 19600 ft | 423 kts | 164° |
| 2026-05-06 20:20 | 28.01383 | -80.47410 | 19953 ft | 426 kts | 164° |
| 2026-05-06 20:21 | 27.98548 | -80.46390 | 20317 ft | 429 kts | 164° |
| 2026-05-06 20:21 | 27.95692 | -80.45364 | 20684 ft | 432 kts | 164° |
| 2026-05-06 20:21 | 27.92817 | -80.44328 | 21035 ft | 434 kts | 165° |
| 2026-05-06 20:21 | 27.89925 | -80.43286 | 21385 ft | 437 kts | 165° |
| 2026-05-06 20:22 | 27.87020 | -80.42234 | 21741 ft | 440 kts | 165° |
| 2026-05-06 20:22 | 27.84096 | -80.41173 | 22091 ft | 443 kts | 165° |
| 2026-05-06 20:22 | 27.81156 | -80.40107 | 22422 ft | 445 kts | 165° |
| 2026-05-06 20:22 | 27.79191 | -80.39395 | 22647 ft | 447 kts | 165° |
| 2026-05-06 20:23 | 27.76218 | -80.38320 | 22980 ft | 450 kts | 165° |
| 2026-05-06 20:23 | 27.73227 | -80.37243 | 23304 ft | 453 kts | 165° |
| 2026-05-06 20:23 | 27.70220 | -80.36162 | 23614 ft | 455 kts | 165° |
| 2026-05-06 20:23 | 27.67190 | -80.35071 | 23888 ft | 458 kts | 165° |
| 2026-05-06 20:24 | 27.64151 | -80.33975 | 24172 ft | 460 kts | 165° |
| 2026-05-06 20:24 | 27.61093 | -80.32869 | 24460 ft | 462 kts | 165° |
| 2026-05-06 20:24 | 27.58029 | -80.31763 | 24738 ft | 463 kts | 165° |
| 2026-05-06 20:24 | 27.54947 | -80.30652 | 25025 ft | 465 kts | 165° |
| 2026-05-06 20:25 | 27.51858 | -80.29542 | 25318 ft | 467 kts | 166° |
| 2026-05-06 20:25 | 27.48765 | -80.28432 | 25601 ft | 468 kts | 166° |
| 2026-05-06 20:25 | 27.45655 | -80.27317 | 25887 ft | 470 kts | 166° |
| 2026-05-06 20:25 | 27.42565 | -80.26209 | 26165 ft | 472 kts | 166° |
| 2026-05-06 20:26 | 27.39426 | -80.25083 | 26439 ft | 474 kts | 166° |
| 2026-05-06 20:26 | 27.36276 | -80.23954 | 26716 ft | 475 kts | 166° |
| 2026-05-06 20:26 | 27.33117 | -80.22820 | 26983 ft | 477 kts | 166° |
| 2026-05-06 20:26 | 27.29948 | -80.21683 | 27248 ft | 479 kts | 166° |
| 2026-05-06 20:27 | 27.26768 | -80.20543 | 27536 ft | 480 kts | 166° |
| 2026-05-06 20:27 | 27.23577 | -80.19402 | 27816 ft | 482 kts | 166° |
| 2026-05-06 20:27 | 27.20369 | -80.18255 | 28095 ft | 484 kts | 166° |
| 2026-05-06 20:27 | 27.17151 | -80.17105 | 28376 ft | 486 kts | 166° |
| 2026-05-06 20:28 | 27.13957 | -80.15965 | 28653 ft | 488 kts | 166° |
| 2026-05-06 20:28 | 27.10720 | -80.14811 | 29006 ft | 488 kts | 166° |
| 2026-05-06 20:28 | 27.07473 | -80.13652 | 29425 ft | 487 kts | 166° |
| 2026-05-06 20:28 | 27.04234 | -80.12495 | 29850 ft | 486 kts | 166° |
| 2026-05-06 20:29 | 27.01056 | -80.11358 | 30247 ft | 485 kts | 166° |
| 2026-05-06 20:29 | 26.97839 | -80.10210 | 30605 ft | 484 kts | 166° |
| 2026-05-06 20:29 | 26.94641 | -80.09069 | 30954 ft | 483 kts | 166° |
| 2026-05-06 20:29 | 26.91430 | -80.07927 | 31301 ft | 483 kts | 166° |
| 2026-05-06 20:30 | 26.88239 | -80.06795 | 31657 ft | 482 kts | 166° |
| 2026-05-06 20:30 | 26.81836 | -80.04520 | 32342 ft | 481 kts | 166° |
| 2026-05-06 20:30 | 26.78647 | -80.03389 | 32731 ft | 480 kts | 166° |
| 2026-05-06 20:31 | 26.75472 | -80.02267 | 33098 ft | 479 kts | 166° |
| 2026-05-06 20:31 | 26.72291 | -80.01147 | 33450 ft | 478 kts | 166° |
| 2026-05-06 20:31 | 26.69123 | -80.00029 | 33807 ft | 477 kts | 166° |
| 2026-05-06 20:31 | 26.65963 | -79.98913 | 34126 ft | 477 kts | 166° |
| 2026-05-06 20:32 | 26.62791 | -79.97791 | 34397 ft | 476 kts | 166° |
| 2026-05-06 20:32 | 26.59628 | -79.96671 | 34666 ft | 476 kts | 167° |
| 2026-05-06 20:32 | 26.56476 | -79.95556 | 34922 ft | 475 kts | 167° |
| 2026-05-06 20:32 | 26.53315 | -79.94438 | 35071 ft | 476 kts | 167° |
| 2026-05-06 20:33 | 26.50177 | -79.93332 | 35091 ft | 481 kts | 166° |
| 2026-05-06 20:33 | 26.43745 | -79.91069 | 35095 ft | 485 kts | 166° |
| 2026-05-06 20:34 | 26.37315 | -79.88801 | 35092 ft | 485 kts | 166° |
| 2026-05-06 20:34 | 26.30880 | -79.86532 | 35093 ft | 485 kts | 166° |
| 2026-05-06 20:35 | 26.24424 | -79.84264 | 35090 ft | 485 kts | 166° |
| 2026-05-06 20:35 | 26.18023 | -79.82011 | 35079 ft | 485 kts | 166° |
| 2026-05-06 20:36 | 26.11576 | -79.79743 | 35077 ft | 485 kts | 166° |
| 2026-05-06 20:36 | 26.05131 | -79.77492 | 35076 ft | 485 kts | 166° |
| 2026-05-06 20:37 | 25.98669 | -79.75238 | 35066 ft | 486 kts | 166° |
| 2026-05-06 20:37 | 25.92220 | -79.72988 | 35064 ft | 486 kts | 166° |
| 2026-05-06 20:38 | 25.85794 | -79.70743 | 35060 ft | 486 kts | 166° |
| 2026-05-06 20:38 | 25.79325 | -79.68480 | 35077 ft | 486 kts | 166° |
| 2026-05-06 20:39 | 25.72861 | -79.66223 | 35076 ft | 486 kts | 166° |
| 2026-05-06 20:39 | 25.66399 | -79.63987 | 35074 ft | 486 kts | 166° |
| 2026-05-06 20:40 | 25.59948 | -79.61751 | 35075 ft | 486 kts | 166° |
| 2026-05-06 20:40 | 25.53482 | -79.59513 | 35072 ft | 486 kts | 166° |
| 2026-05-06 20:41 | 25.47066 | -79.57291 | 35073 ft | 486 kts | 166° |
| 2026-05-06 20:41 | 25.40622 | -79.55056 | 35072 ft | 486 kts | 166° |
| 2026-05-06 20:42 | 25.34164 | -79.52823 | 35073 ft | 485 kts | 166° |
| 2026-05-06 20:42 | 25.27712 | -79.50589 | 35074 ft | 486 kts | 166° |
| 2026-05-06 20:43 | 25.21253 | -79.48355 | 35063 ft | 485 kts | 165° |
| 2026-05-06 20:43 | 25.14810 | -79.46141 | 35069 ft | 485 kts | 165° |
| 2026-05-06 20:44 | 25.08401 | -79.43945 | 35073 ft | 485 kts | 165° |
| 2026-05-06 20:44 | 25.01955 | -79.41726 | 35070 ft | 485 kts | 165° |
| 2026-05-06 20:45 | 24.95507 | -79.39506 | 35061 ft | 486 kts | 165° |
| 2026-05-06 20:45 | 24.89052 | -79.37291 | 35053 ft | 486 kts | 165° |
| 2026-05-06 20:46 | 24.82589 | -79.35079 | 35053 ft | 486 kts | 165° |
| 2026-05-06 20:46 | 24.76131 | -79.32864 | 35056 ft | 486 kts | 165° |
| 2026-05-06 20:47 | 24.69676 | -79.30651 | 35064 ft | 486 kts | 165° |
| 2026-05-06 20:47 | 24.63245 | -79.28460 | 35066 ft | 486 kts | 165° |
| 2026-05-06 20:48 | 24.56777 | -79.26261 | 35056 ft | 486 kts | 165° |
| 2026-05-06 20:48 | 24.50314 | -79.24058 | 35060 ft | 486 kts | 165° |
| 2026-05-06 20:49 | 24.43864 | -79.21852 | 35059 ft | 486 kts | 165° |
| 2026-05-06 20:49 | 24.37433 | -79.19661 | 35060 ft | 486 kts | 165° |
| 2026-05-06 20:50 | 24.30966 | -79.17469 | 35065 ft | 486 kts | 165° |
| 2026-05-06 20:50 | 24.24496 | -79.15282 | 35066 ft | 485 kts | 165° |
| 2026-05-06 20:51 | 24.18044 | -79.13096 | 35063 ft | 485 kts | 165° |
| 2026-05-06 20:51 | 24.11587 | -79.10904 | 35063 ft | 485 kts | 165° |
| 2026-05-06 20:52 | 24.05129 | -79.08714 | 35063 ft | 485 kts | 165° |
| 2026-05-06 20:52 | 23.98639 | -79.06706 | 35047 ft | 483 kts | 172° |
| 2026-05-06 20:53 | 23.92067 | -79.05423 | 35057 ft | 483 kts | 172° |
| 2026-05-06 20:53 | 23.85449 | -79.04109 | 35049 ft | 483 kts | 172° |
| 2026-05-06 20:54 | 23.78825 | -79.02791 | 35054 ft | 484 kts | 172° |
| 2026-05-06 20:54 | 23.72191 | -79.01469 | 35051 ft | 484 kts | 172° |
| 2026-05-06 20:55 | 23.65562 | -79.00157 | 35041 ft | 484 kts | 172° |
| 2026-05-06 20:55 | 23.59345 | -78.98930 | 35046 ft | 484 kts | 172° |
| 2026-05-06 20:56 | 23.52709 | -78.97618 | 35047 ft | 484 kts | 172° |
| 2026-05-06 20:56 | 23.46072 | -78.96309 | 35049 ft | 484 kts | 172° |
| 2026-05-06 20:57 | 23.39441 | -78.95013 | 35052 ft | 484 kts | 172° |
| 2026-05-06 20:57 | 23.32810 | -78.93713 | 35045 ft | 484 kts | 172° |
| 2026-05-06 20:58 | 23.26180 | -78.92405 | 35048 ft | 484 kts | 172° |
| 2026-05-06 20:58 | 23.19600 | -78.91113 | 35051 ft | 484 kts | 172° |
| 2026-05-06 20:59 | 23.12973 | -78.89812 | 35050 ft | 484 kts | 172° |
| 2026-05-06 20:59 | 23.06348 | -78.88514 | 35044 ft | 484 kts | 172° |
| 2026-05-06 21:00 | 22.99724 | -78.87221 | 35043 ft | 483 kts | 171° |
| 2026-05-06 21:00 | 22.93101 | -78.85921 | 35045 ft | 483 kts | 171° |
| 2026-05-06 21:01 | 22.86471 | -78.84617 | 35046 ft | 483 kts | 171° |
| 2026-05-06 21:01 | 22.79854 | -78.83324 | 35047 ft | 483 kts | 171° |
| 2026-05-06 21:02 | 22.73277 | -78.82043 | 35047 ft | 483 kts | 171° |
| 2026-05-06 21:02 | 22.66659 | -78.80751 | 35038 ft | 483 kts | 171° |
| 2026-05-06 21:03 | 22.60040 | -78.79464 | 35040 ft | 483 kts | 171° |
| 2026-05-06 21:03 | 22.53428 | -78.78179 | 35041 ft | 483 kts | 171° |
| 2026-05-06 21:04 | 22.46811 | -78.76896 | 35042 ft | 483 kts | 171° |
| 2026-05-06 21:04 | 22.40197 | -78.75610 | 35042 ft | 483 kts | 171° |
| 2026-05-06 21:05 | 22.33629 | -78.74335 | 35039 ft | 483 kts | 171° |
| 2026-05-06 21:05 | 22.27011 | -78.73053 | 35036 ft | 483 kts | 171° |
| 2026-05-06 21:06 | 22.20403 | -78.71772 | 35037 ft | 483 kts | 171° |
| 2026-05-06 21:06 | 22.13791 | -78.70495 | 35037 ft | 483 kts | 171° |
| 2026-05-06 21:07 | 22.07183 | -78.69215 | 35034 ft | 483 kts | 171° |
| 2026-05-06 21:07 | 22.00573 | -78.67940 | 35041 ft | 482 kts | 171° |
| 2026-05-06 21:08 | 21.93967 | -78.66668 | 35036 ft | 482 kts | 171° |
| 2026-05-06 21:08 | 21.88471 | -78.65604 | 35031 ft | 482 kts | 171° |
| 2026-05-06 21:09 | 21.80787 | -78.64125 | 35030 ft | 483 kts | 171° |
| 2026-05-06 21:09 | 21.74174 | -78.62855 | 35028 ft | 483 kts | 171° |
| 2026-05-06 21:10 | 21.68677 | -78.61794 | 35022 ft | 483 kts | 170° |
| 2026-05-06 21:10 | 21.62066 | -78.60526 | 35023 ft | 483 kts | 170° |
| 2026-05-06 21:11 | 21.55451 | -78.59267 | 35023 ft | 483 kts | 170° |
| 2026-05-06 21:11 | 21.48826 | -78.58004 | 35024 ft | 483 kts | 170° |
| 2026-05-06 21:12 | 21.42216 | -78.56735 | 35023 ft | 483 kts | 170° |
| 2026-05-06 21:12 | 21.35590 | -78.55467 | 35028 ft | 483 kts | 170° |
| 2026-05-06 21:13 | 21.28978 | -78.54202 | 35030 ft | 482 kts | 170° |
| 2026-05-06 21:13 | 21.22375 | -78.52936 | 35032 ft | 482 kts | 170° |
| 2026-05-06 21:14 | 21.15812 | -78.51682 | 35033 ft | 482 kts | 170° |
| 2026-05-06 21:14 | 21.09203 | -78.50427 | 35034 ft | 482 kts | 170° |
| 2026-05-06 21:15 | 21.02597 | -78.49172 | 35034 ft | 482 kts | 170° |
| 2026-05-06 21:15 | 20.95999 | -78.47912 | 35031 ft | 482 kts | 170° |
| 2026-05-06 21:16 | 20.89396 | -78.46650 | 35032 ft | 482 kts | 170° |
| 2026-05-06 21:16 | 20.82793 | -78.45399 | 35029 ft | 482 kts | 170° |
| 2026-05-06 21:17 | 20.76188 | -78.44151 | 35026 ft | 482 kts | 170° |
| 2026-05-06 21:17 | 20.69587 | -78.42903 | 35025 ft | 482 kts | 170° |
| 2026-05-06 21:18 | 20.63031 | -78.41661 | 35024 ft | 482 kts | 170° |
| 2026-05-06 21:18 | 20.56426 | -78.40403 | 35025 ft | 482 kts | 170° |
| 2026-05-06 21:19 | 20.49822 | -78.39157 | 35022 ft | 482 kts | 170° |
| 2026-05-06 21:19 | 20.43210 | -78.37907 | 35023 ft | 482 kts | 170° |
| 2026-05-06 21:20 | 20.36610 | -78.36659 | 35025 ft | 481 kts | 170° |
| 2026-05-06 21:20 | 20.30016 | -78.35423 | 35029 ft | 481 kts | 170° |
| 2026-05-06 21:21 | 20.23418 | -78.34182 | 35030 ft | 481 kts | 170° |
| 2026-05-06 21:21 | 20.16826 | -78.32943 | 35026 ft | 481 kts | 170° |
| 2026-05-06 21:22 | 20.10275 | -78.31722 | 35026 ft | 481 kts | 170° |
| 2026-05-06 21:22 | 20.03691 | -78.30485 | 35026 ft | 480 kts | 169° |
| 2026-05-06 21:23 | 19.97105 | -78.29243 | 35030 ft | 480 kts | 169° |
| 2026-05-06 21:23 | 19.90567 | -78.27834 | 35029 ft | 479 kts | 167° |
| 2026-05-06 21:24 | 19.84061 | -78.26262 | 35031 ft | 479 kts | 166° |
| 2026-05-06 21:24 | 19.77605 | -78.24719 | 35026 ft | 479 kts | 167° |
| 2026-05-06 21:25 | 19.71091 | -78.23213 | 35018 ft | 478 kts | 167° |
| 2026-05-06 21:25 | 19.64584 | -78.21732 | 35020 ft | 478 kts | 167° |
| 2026-05-06 21:26 | 19.58081 | -78.20242 | 35021 ft | 478 kts | 167° |
| 2026-05-06 21:26 | 19.51580 | -78.18746 | 35021 ft | 478 kts | 167° |
| 2026-05-06 21:27 | 19.45077 | -78.17259 | 35019 ft | 477 kts | 167° |
| 2026-05-06 21:27 | 19.38622 | -78.15785 | 35018 ft | 477 kts | 167° |
| 2026-05-06 21:28 | 19.32130 | -78.14296 | 35022 ft | 477 kts | 167° |
| 2026-05-06 21:28 | 19.25645 | -78.12817 | 35022 ft | 477 kts | 167° |
| 2026-05-06 21:29 | 19.19156 | -78.11342 | 35021 ft | 476 kts | 167° |
| 2026-05-06 21:29 | 19.12706 | -78.09865 | 35016 ft | 476 kts | 167° |
| 2026-05-06 21:30 | 19.06228 | -78.08381 | 35020 ft | 476 kts | 167° |
| 2026-05-06 21:30 | 18.99750 | -78.06904 | 35019 ft | 476 kts | 167° |
| 2026-05-06 21:31 | 18.93271 | -78.05435 | 35016 ft | 476 kts | 167° |
| 2026-05-06 21:31 | 18.86801 | -78.03960 | 35016 ft | 476 kts | 167° |
| 2026-05-06 21:32 | 18.80331 | -78.02482 | 35011 ft | 475 kts | 167° |
| 2026-05-06 21:32 | 18.70624 | -78.00272 | 34998 ft | 475 kts | 167° |
| 2026-05-06 21:33 | 18.64165 | -77.98811 | 34995 ft | 475 kts | 167° |
| 2026-05-06 21:33 | 18.57703 | -77.97346 | 34987 ft | 474 kts | 167° |
| 2026-05-06 21:34 | 18.51251 | -77.95887 | 34986 ft | 474 kts | 167° |
| 2026-05-06 21:34 | 18.44786 | -77.94428 | 34980 ft | 474 kts | 167° |
| 2026-05-06 21:35 | 18.38370 | -77.92978 | 34980 ft | 475 kts | 166° |
| 2026-05-06 21:35 | 18.31911 | -77.91519 | 34986 ft | 475 kts | 166° |
| 2026-05-06 21:36 | 18.25446 | -77.90059 | 35006 ft | 475 kts | 166° |
| 2026-05-06 21:36 | 18.18984 | -77.88599 | 35009 ft | 475 kts | 166° |
| 2026-05-06 21:37 | 18.12514 | -77.87137 | 35001 ft | 475 kts | 166° |
| 2026-05-06 21:37 | 18.06045 | -77.85678 | 35000 ft | 475 kts | 166° |
| 2026-05-06 21:38 | 17.99582 | -77.84223 | 34999 ft | 475 kts | 166° |
| 2026-05-06 21:38 | 17.93116 | -77.82771 | 35004 ft | 475 kts | 166° |
| 2026-05-06 21:39 | 17.86694 | -77.81332 | 35002 ft | 474 kts | 166° |
| 2026-05-06 21:39 | 17.80236 | -77.79885 | 35006 ft | 474 kts | 166° |
| 2026-05-06 21:40 | 17.73782 | -77.78436 | 34999 ft | 474 kts | 166° |
| 2026-05-06 21:40 | 17.67318 | -77.76983 | 34999 ft | 474 kts | 166° |
| 2026-05-06 21:41 | 17.60865 | -77.75535 | 34998 ft | 474 kts | 166° |
| 2026-05-06 21:41 | 17.54416 | -77.74094 | 34997 ft | 474 kts | 166° |
| 2026-05-06 21:42 | 17.48001 | -77.72666 | 34996 ft | 474 kts | 166° |
| 2026-05-06 21:42 | 17.41540 | -77.71220 | 34995 ft | 474 kts | 166° |
| 2026-05-06 21:43 | 17.35090 | -77.69773 | 34992 ft | 474 kts | 166° |
| 2026-05-06 21:43 | 17.28644 | -77.68330 | 34998 ft | 474 kts | 166° |
| 2026-05-06 21:44 | 17.22198 | -77.66891 | 35000 ft | 473 kts | 166° |
| 2026-05-06 21:44 | 17.15756 | -77.65460 | 34997 ft | 473 kts | 166° |
| 2026-05-06 21:45 | 17.09353 | -77.64029 | 34996 ft | 473 kts | 166° |
| 2026-05-06 21:45 | 17.02910 | -77.62597 | 34998 ft | 473 kts | 166° |
| 2026-05-06 21:46 | 16.96466 | -77.61169 | 35000 ft | 472 kts | 166° |
| 2026-05-06 21:46 | 16.90071 | -77.59741 | 34994 ft | 472 kts | 166° |
| 2026-05-06 21:47 | 16.83644 | -77.58299 | 34996 ft | 472 kts | 166° |
| 2026-05-06 21:47 | 16.77204 | -77.56866 | 34991 ft | 472 kts | 166° |
| 2026-05-06 21:48 | 16.70805 | -77.55458 | 34989 ft | 473 kts | 166° |
| 2026-05-06 21:48 | 16.64352 | -77.54032 | 34987 ft | 472 kts | 166° |
| 2026-05-06 21:49 | 16.57911 | -77.52605 | 34991 ft | 472 kts | 166° |
| 2026-05-06 21:49 | 16.51518 | -77.51186 | 34989 ft | 472 kts | 166° |
| 2026-05-06 21:50 | 16.45091 | -77.49767 | 34989 ft | 472 kts | 166° |
| 2026-05-06 21:50 | 16.38669 | -77.48352 | 34986 ft | 472 kts | 166° |
| 2026-05-06 21:51 | 16.32229 | -77.46916 | 34980 ft | 472 kts | 166° |
| 2026-05-06 21:51 | 16.25841 | -77.45498 | 34985 ft | 471 kts | 166° |
| 2026-05-06 21:52 | 16.19421 | -77.44089 | 34986 ft | 471 kts | 166° |
| 2026-05-06 21:52 | 16.13042 | -77.42686 | 34986 ft | 470 kts | 166° |
| 2026-05-06 21:53 | 16.06628 | -77.41267 | 34978 ft | 470 kts | 166° |
| 2026-05-06 21:53 | 16.00208 | -77.39858 | 34978 ft | 470 kts | 166° |
| 2026-05-06 21:54 | 15.93799 | -77.38475 | 34980 ft | 470 kts | 166° |
| 2026-05-06 21:54 | 15.87417 | -77.37207 | 34978 ft | 470 kts | 167° |
| 2026-05-06 21:55 | 15.80976 | -77.35967 | 34973 ft | 470 kts | 167° |
| 2026-05-06 21:55 | 15.74556 | -77.34701 | 34978 ft | 469 kts | 166° |
| 2026-05-06 21:56 | 15.68171 | -77.33421 | 34969 ft | 469 kts | 166° |
| 2026-05-06 21:56 | 15.61760 | -77.32138 | 34967 ft | 469 kts | 167° |
| 2026-05-06 21:57 | 15.55338 | -77.30866 | 34971 ft | 469 kts | 167° |
| 2026-05-06 21:57 | 15.48964 | -77.29605 | 34966 ft | 468 kts | 167° |
| 2026-05-06 21:58 | 15.42559 | -77.28331 | 34972 ft | 468 kts | 167° |
| 2026-05-06 21:58 | 15.36155 | -77.27059 | 34965 ft | 468 kts | 167° |
| 2026-05-06 21:59 | 15.29760 | -77.25790 | 34965 ft | 468 kts | 167° |
| 2026-05-06 21:59 | 15.23358 | -77.24519 | 34957 ft | 467 kts | 167° |
| 2026-05-06 22:00 | 15.18047 | -77.23468 | 34964 ft | 467 kts | 167° |
| 2026-05-06 22:00 | 15.10619 | -77.21998 | 34967 ft | 467 kts | 167° |
| 2026-05-06 22:01 | 15.05303 | -77.20940 | 34965 ft | 467 kts | 167° |
| 2026-05-06 22:01 | 14.98914 | -77.19681 | 34957 ft | 467 kts | 167° |
| 2026-05-06 22:02 | 14.92532 | -77.18403 | 34959 ft | 467 kts | 166° |
| 2026-05-06 22:02 | 14.86151 | -77.17106 | 34957 ft | 467 kts | 167° |
| 2026-05-06 22:03 | 14.79772 | -77.15811 | 34950 ft | 467 kts | 167° |
| 2026-05-06 22:03 | 14.73392 | -77.14528 | 34952 ft | 467 kts | 167° |
| 2026-05-06 22:04 | 14.67015 | -77.13255 | 34948 ft | 467 kts | 167° |
| 2026-05-06 22:04 | 14.60638 | -77.11977 | 34950 ft | 467 kts | 167° |
| 2026-05-06 22:05 | 14.54307 | -77.10697 | 34945 ft | 467 kts | 167° |
| 2026-05-06 22:05 | 14.47927 | -77.09415 | 34945 ft | 467 kts | 167° |
| 2026-05-06 22:06 | 14.41549 | -77.08139 | 34943 ft | 467 kts | 167° |
| 2026-05-06 22:06 | 14.35172 | -77.06859 | 34945 ft | 467 kts | 166° |
| 2026-05-06 22:07 | 14.28796 | -77.05574 | 34944 ft | 467 kts | 167° |
| 2026-05-06 22:07 | 14.22415 | -77.04293 | 34944 ft | 467 kts | 167° |
| 2026-05-06 22:08 | 14.16038 | -77.03025 | 34939 ft | 467 kts | 167° |
| 2026-05-06 22:08 | 14.09654 | -77.01756 | 34936 ft | 467 kts | 167° |
| 2026-05-06 22:09 | 14.03278 | -77.00474 | 34938 ft | 467 kts | 167° |
| 2026-05-06 22:09 | 13.96948 | -76.99203 | 34931 ft | 467 kts | 167° |
| 2026-05-06 22:10 | 13.90569 | -76.97936 | 34937 ft | 467 kts | 167° |
| 2026-05-06 22:10 | 13.84188 | -76.96660 | 34926 ft | 467 kts | 167° |
| 2026-05-06 22:11 | 13.77815 | -76.95379 | 34942 ft | 466 kts | 166° |
| 2026-05-06 22:11 | 13.71458 | -76.94110 | 34934 ft | 465 kts | 167° |
| 2026-05-06 22:12 | 13.65107 | -76.92847 | 34928 ft | 465 kts | 166° |
| 2026-05-06 22:12 | 13.58796 | -76.91589 | 34938 ft | 464 kts | 166° |
| 2026-05-06 22:13 | 13.52450 | -76.90328 | 34928 ft | 465 kts | 167° |
| 2026-05-06 22:13 | 13.46097 | -76.89063 | 34923 ft | 464 kts | 167° |
| 2026-05-06 22:14 | 13.39743 | -76.87798 | 34921 ft | 465 kts | 165° |
| 2026-05-06 22:14 | 13.33397 | -76.86537 | 34926 ft | 464 kts | 168° |
| 2026-05-06 22:15 | 13.27044 | -76.85278 | 34908 ft | 465 kts | 167° |
| 2026-05-06 22:15 | 13.20692 | -76.84009 | 34908 ft | 465 kts | 167° |
| 2026-05-06 22:16 | 13.14326 | -76.82745 | 34907 ft | 466 kts | 168° |
| 2026-05-06 22:16 | 13.07952 | -76.81485 | 34903 ft | 467 kts | 167° |
| 2026-05-06 22:17 | 13.01610 | -76.80228 | 34915 ft | 467 kts | 168° |
| 2026-05-06 22:17 | 12.95234 | -76.78958 | 34904 ft | 467 kts | 168° |
| 2026-05-06 22:18 | 12.88851 | -76.77704 | 34908 ft | 467 kts | 168° |
| 2026-05-06 22:18 | 12.82467 | -76.76447 | 34902 ft | 467 kts | 168° |
| 2026-05-06 22:19 | 12.76080 | -76.75184 | 34905 ft | 467 kts | 169° |
| 2026-05-06 22:19 | 12.69699 | -76.73915 | 34906 ft | 467 kts | 169° |
| 2026-05-06 22:20 | 12.63324 | -76.72657 | 34906 ft | 466 kts | 169° |
| 2026-05-06 22:20 | 12.56954 | -76.71405 | 34905 ft | 466 kts | 169° |
| 2026-05-06 22:21 | 12.50635 | -76.70164 | 34903 ft | 466 kts | 169° |
| 2026-05-06 22:21 | 12.44269 | -76.68915 | 34902 ft | 466 kts | 169° |
| 2026-05-06 22:22 | 12.37908 | -76.67666 | 34908 ft | 465 kts | 170° |
| 2026-05-06 22:22 | 12.31554 | -76.66419 | 34911 ft | 464 kts | 169° |
| 2026-05-06 22:23 | 12.25216 | -76.65177 | 34903 ft | 464 kts | 169° |
| 2026-05-06 22:23 | 12.18878 | -76.63932 | 34904 ft | 463 kts | 170° |
| 2026-05-06 22:24 | 12.12542 | -76.62694 | 34893 ft | 463 kts | 169° |
| 2026-05-06 22:24 | 12.06212 | -76.61454 | 34897 ft | 463 kts | 170° |
| 2026-05-06 22:25 | 11.99887 | -76.60213 | 34896 ft | 462 kts | 170° |
| 2026-05-06 22:25 | 11.93574 | -76.58982 | 34898 ft | 461 kts | 169° |
| 2026-05-06 22:26 | 11.87271 | -76.57749 | 34893 ft | 461 kts | 169° |
| 2026-05-06 22:26 | 11.81012 | -76.56529 | 34887 ft | 461 kts | 170° |
| 2026-05-06 22:27 | 11.74709 | -76.55294 | 34888 ft | 461 kts | 170° |
| 2026-05-06 22:27 | 11.68404 | -76.54061 | 34893 ft | 461 kts | 170° |
| 2026-05-06 22:28 | 11.62095 | -76.52832 | 34887 ft | 461 kts | 169° |
| 2026-05-06 22:28 | 11.55791 | -76.51606 | 34890 ft | 461 kts | 170° |
| 2026-05-06 22:29 | 11.49486 | -76.50372 | 34882 ft | 461 kts | 169° |
| 2026-05-06 22:29 | 11.43189 | -76.49143 | 34884 ft | 461 kts | 170° |
| 2026-05-06 22:30 | 11.36882 | -76.47913 | 34880 ft | 461 kts | 170° |
| 2026-05-06 22:30 | 11.30586 | -76.46690 | 34871 ft | 461 kts | 170° |
| 2026-05-06 22:31 | 11.24329 | -76.45476 | 34865 ft | 461 kts | 169° |
| 2026-05-06 22:31 | 11.18031 | -76.44254 | 34870 ft | 461 kts | 170° |
| 2026-05-06 22:32 | 11.11728 | -76.43025 | 34870 ft | 461 kts | 169° |
| 2026-05-06 22:32 | 11.05421 | -76.41795 | 34868 ft | 461 kts | 170° |
| 2026-05-06 22:33 | 10.99121 | -76.40569 | 34869 ft | 461 kts | 170° |
| 2026-05-06 22:33 | 10.92826 | -76.39344 | 34862 ft | 461 kts | 171° |
| 2026-05-06 22:34 | 10.86524 | -76.38119 | 34866 ft | 461 kts | 170° |
| 2026-05-06 22:34 | 10.80221 | -76.36898 | 34864 ft | 461 kts | 171° |
| 2026-05-06 22:35 | 10.73953 | -76.35687 | 34870 ft | 461 kts | 170° |
| 2026-05-06 22:35 | 10.67653 | -76.34466 | 34866 ft | 461 kts | 171° |
| 2026-05-06 22:36 | 10.61350 | -76.33245 | 34870 ft | 461 kts | 170° |
| 2026-05-06 22:36 | 10.55054 | -76.32022 | 34864 ft | 461 kts | 170° |
| 2026-05-06 22:37 | 10.48756 | -76.30793 | 34864 ft | 461 kts | 170° |
| 2026-05-06 22:37 | 10.42493 | -76.29586 | 34864 ft | 461 kts | 171° |
| 2026-05-06 22:38 | 10.36194 | -76.28379 | 34865 ft | 460 kts | 171° |
| 2026-05-06 22:38 | 10.29901 | -76.27159 | 34860 ft | 460 kts | 171° |
| 2026-05-06 22:39 | 10.23605 | -76.25939 | 34860 ft | 460 kts | 170° |
| 2026-05-06 22:39 | 10.17322 | -76.24722 | 34862 ft | 459 kts | 170° |
| 2026-05-06 22:40 | 10.11046 | -76.23511 | 34860 ft | 459 kts | 170° |
| 2026-05-06 22:40 | 10.04778 | -76.22308 | 34865 ft | 458 kts | 170° |
| 2026-05-06 22:41 | 9.95383 | -76.20495 | 34860 ft | 458 kts | 170° |
| 2026-05-06 22:42 | 9.89120 | -76.19282 | 34859 ft | 458 kts | 170° |
| 2026-05-06 22:42 | 9.82861 | -76.18077 | 34858 ft | 458 kts | 170° |
| 2026-05-06 22:43 | 9.76603 | -76.16870 | 34856 ft | 457 kts | 170° |
| 2026-05-06 22:43 | 9.70388 | -76.15668 | 34860 ft | 457 kts | 170° |
| 2026-05-06 22:44 | 9.64133 | -76.14464 | 34860 ft | 457 kts | 170° |
| 2026-05-06 22:44 | 9.57872 | -76.13263 | 34860 ft | 457 kts | 170° |
| 2026-05-06 22:45 | 9.51620 | -76.12042 | 34854 ft | 457 kts | 169° |
| 2026-05-06 22:45 | 9.45370 | -76.10777 | 34848 ft | 458 kts | 169° |
| 2026-05-06 22:46 | 9.39123 | -76.09517 | 34857 ft | 458 kts | 169° |
| 2026-05-06 22:46 | 9.32904 | -76.08278 | 34861 ft | 458 kts | 169° |
| 2026-05-06 22:47 | 9.26652 | -76.07038 | 34856 ft | 458 kts | 169° |
| 2026-05-06 22:47 | 9.20393 | -76.05794 | 34857 ft | 458 kts | 169° |
| 2026-05-06 22:48 | 9.14137 | -76.04538 | 34857 ft | 458 kts | 169° |
| 2026-05-06 22:48 | 9.07881 | -76.03287 | 34860 ft | 458 kts | 169° |
| 2026-05-06 22:49 | 9.01623 | -76.02045 | 34861 ft | 458 kts | 169° |
| 2026-05-06 22:49 | 8.95366 | -76.00808 | 34863 ft | 458 kts | 169° |
| 2026-05-06 22:50 | 8.89113 | -75.99559 | 34862 ft | 458 kts | 169° |
| 2026-05-06 22:50 | 8.82853 | -75.98311 | 34862 ft | 458 kts | 169° |
| 2026-05-06 22:51 | 8.77655 | -75.97281 | 34865 ft | 458 kts | 169° |
| 2026-05-06 22:51 | 8.71395 | -75.96043 | 34865 ft | 458 kts | 169° |
| 2026-05-06 22:52 | 8.65134 | -75.94801 | 34867 ft | 458 kts | 169° |
| 2026-05-06 22:52 | 8.58884 | -75.93558 | 34863 ft | 458 kts | 169° |
| 2026-05-06 22:53 | 8.52631 | -75.92316 | 34864 ft | 458 kts | 169° |
| 2026-05-06 22:53 | 8.46415 | -75.91081 | 34861 ft | 458 kts | 169° |
| 2026-05-06 22:54 | 8.40168 | -75.89833 | 34861 ft | 457 kts | 168° |
| 2026-05-06 22:54 | 8.33914 | -75.88593 | 34860 ft | 457 kts | 168° |
| 2026-05-06 22:55 | 8.27658 | -75.87363 | 34865 ft | 457 kts | 169° |
| 2026-05-06 22:55 | 8.21406 | -75.86130 | 34870 ft | 458 kts | 168° |
| 2026-05-06 22:56 | 8.15153 | -75.84884 | 34873 ft | 458 kts | 168° |
| 2026-05-06 22:56 | 8.08890 | -75.83638 | 34883 ft | 458 kts | 168° |
| 2026-05-06 22:57 | 8.02713 | -75.82417 | 34875 ft | 450 kts | 168° |
| 2026-05-06 22:57 | 7.96537 | -75.81206 | 34890 ft | 453 kts | 169° |
| 2026-05-06 22:58 | 7.90334 | -75.80113 | 34895 ft | 451 kts | 170° |
| 2026-05-06 22:58 | 7.84139 | -75.79070 | 34893 ft | 450 kts | 170° |
| 2026-05-06 22:59 | 7.77964 | -75.78019 | 34914 ft | 450 kts | 170° |
| 2026-05-06 22:59 | 7.71831 | -75.76952 | 34910 ft | 449 kts | 170° |
| 2026-05-06 23:00 | 7.65690 | -75.75872 | 34906 ft | 448 kts | 170° |
| 2026-05-06 23:00 | 7.59555 | -75.74800 | 34934 ft | 447 kts | 171° |
| 2026-05-06 23:01 | 7.53421 | -75.73735 | 34936 ft | 447 kts | 171° |
| 2026-05-06 23:01 | 7.47292 | -75.72666 | 34956 ft | 447 kts | 170° |
| 2026-05-06 23:02 | 7.41159 | -75.71606 | 34961 ft | 447 kts | 171° |
| 2026-05-06 23:02 | 7.35029 | -75.70542 | 34980 ft | 447 kts | 170° |
| 2026-05-06 23:03 | 7.28895 | -75.69469 | 34985 ft | 447 kts | 169° |
| 2026-05-06 23:03 | 7.22765 | -75.68397 | 34825 ft | 443 kts | 169° |
| 2026-05-06 23:03 | 7.19740 | -75.67873 | 34592 ft | 438 kts | 169° |
| 2026-05-06 23:04 | 7.16747 | -75.67357 | 34370 ft | 435 kts | 170° |
| 2026-05-06 23:04 | 7.13777 | -75.66845 | 34016 ft | 431 kts | 169° |
| 2026-05-06 23:04 | 7.10823 | -75.66333 | 33502 ft | 430 kts | 168° |
| 2026-05-06 23:04 | 7.07927 | -75.65830 | 33049 ft | 426 kts | 169° |
| 2026-05-06 23:05 | 7.05012 | -75.65322 | 32595 ft | 424 kts | 169° |
| 2026-05-06 23:05 | 7.02105 | -75.64815 | 32127 ft | 422 kts | 168° |
| 2026-05-06 23:05 | 6.99223 | -75.64314 | 31668 ft | 420 kts | 169° |
| 2026-05-06 23:05 | 6.96345 | -75.63814 | 31201 ft | 418 kts | 168° |
| 2026-05-06 23:06 | 6.93485 | -75.63317 | 30757 ft | 416 kts | 169° |
| 2026-05-06 23:06 | 6.90630 | -75.62823 | 30328 ft | 414 kts | 168° |
| 2026-05-06 23:06 | 6.87822 | -75.62335 | 29866 ft | 413 kts | 168° |
| 2026-05-06 23:06 | 6.84991 | -75.61843 | 29417 ft | 410 kts | 168° |
| 2026-05-06 23:07 | 6.82194 | -75.61357 | 28999 ft | 406 kts | 167° |
| 2026-05-06 23:07 | 6.79416 | -75.60875 | 28580 ft | 403 kts | 169° |
| 2026-05-06 23:07 | 6.76657 | -75.60403 | 28173 ft | 401 kts | 168° |
| 2026-05-06 23:07 | 6.73915 | -75.59938 | 27763 ft | 399 kts | 168° |
| 2026-05-06 23:08 | 6.71185 | -75.59478 | 27354 ft | 397 kts | 168° |
| 2026-05-06 23:08 | 6.68497 | -75.59023 | 26948 ft | 395 kts | 168° |
| 2026-05-06 23:08 | 6.65792 | -75.58565 | 26536 ft | 393 kts | 169° |
| 2026-05-06 23:08 | 6.63101 | -75.58109 | 26117 ft | 391 kts | 169° |
| 2026-05-06 23:09 | 6.60419 | -75.57653 | 25690 ft | 390 kts | 169° |
| 2026-05-06 23:09 | 6.57743 | -75.57196 | 25265 ft | 389 kts | 168° |
| 2026-05-06 23:09 | 6.55074 | -75.56741 | 24825 ft | 389 kts | 168° |
| 2026-05-06 23:09 | 6.52408 | -75.56287 | 24388 ft | 389 kts | 168° |
| 2026-05-06 23:10 | 6.49739 | -75.55833 | 23940 ft | 389 kts | 169° |
| 2026-05-06 23:10 | 6.47071 | -75.55381 | 23467 ft | 389 kts | 169° |
| 2026-05-06 23:10 | 6.44405 | -75.54927 | 22971 ft | 387 kts | 169° |
| 2026-05-06 23:10 | 6.41788 | -75.54482 | 22527 ft | 385 kts | 168° |
| 2026-05-06 23:11 | 6.39140 | -75.54126 | 22071 ft | 384 kts | 176° |
| 2026-05-06 23:11 | 6.36471 | -75.54080 | 21623 ft | 382 kts | 177° |
| 2026-05-06 23:11 | 6.33823 | -75.54037 | 21171 ft | 379 kts | 177° |
| 2026-05-06 23:11 | 6.31185 | -75.53993 | 20874 ft | 377 kts | 176° |
| 2026-05-06 23:12 | 6.28568 | -75.53947 | 20417 ft | 374 kts | 176° |
| 2026-05-06 23:12 | 6.25975 | -75.53899 | 19979 ft | 371 kts | 176° |
| 2026-05-06 23:12 | 6.23401 | -75.53852 | 19550 ft | 368 kts | 176° |
| 2026-05-06 23:12 | 6.20847 | -75.53803 | 19113 ft | 366 kts | 176° |
| 2026-05-06 23:13 | 6.18309 | -75.53757 | 18683 ft | 364 kts | 176° |
| 2026-05-06 23:13 | 6.15787 | -75.53712 | 18230 ft | 362 kts | 175° |
| 2026-05-06 23:13 | 6.13275 | -75.53666 | 17673 ft | 359 kts | 175° |
| 2026-05-06 23:13 | 6.10799 | -75.53635 | 17199 ft | 351 kts | 176° |
| 2026-05-06 23:14 | 6.08383 | -75.53642 | 16927 ft | 344 kts | 177° |
| 2026-05-06 23:14 | 6.06012 | -75.53672 | 16484 ft | 337 kts | 177° |
| 2026-05-06 23:14 | 6.03688 | -75.53708 | 16050 ft | 332 kts | 177° |
| 2026-05-06 23:14 | 6.01397 | -75.53743 | 15615 ft | 326 kts | 177° |
| 2026-05-06 23:15 | 5.99174 | -75.53774 | 15200 ft | 321 kts | 177° |
| 2026-05-06 23:15 | 5.96957 | -75.53798 | 14777 ft | 317 kts | 177° |
| 2026-05-06 23:15 | 5.94769 | -75.53818 | 14368 ft | 311 kts | 177° |
| 2026-05-06 23:15 | 5.92652 | -75.53838 | 14216 ft | 299 kts | 177° |
| 2026-05-06 23:16 | 5.90613 | -75.53814 | 14076 ft | 285 kts | 168° |
| 2026-05-06 23:16 | 5.88867 | -75.53128 | 13880 ft | 261 kts | 139° |
| 2026-05-06 23:16 | 5.87775 | -75.51754 | 13503 ft | 251 kts | 111° |
| 2026-05-06 23:16 | 5.87475 | -75.50045 | 13036 ft | 251 kts | 90° |
| 2026-05-06 23:17 | 5.87496 | -75.48285 | 12589 ft | 254 kts | 90° |
| 2026-05-06 23:17 | 5.87517 | -75.46529 | 12349 ft | 248 kts | 89° |
| 2026-05-06 23:17 | 5.87538 | -75.44830 | 12124 ft | 241 kts | 88° |
| 2026-05-06 23:17 | 5.87989 | -75.43227 | 11993 ft | 244 kts | 55° |
| 2026-05-06 23:18 | 5.89331 | -75.42172 | 11613 ft | 254 kts | 19° |
| 2026-05-06 23:18 | 5.91099 | -75.42034 | 11343 ft | 260 kts | 360° |
| 2026-05-06 23:18 | 5.92916 | -75.42135 | 11016 ft | 263 kts | 1° |
| 2026-05-06 23:18 | 5.94730 | -75.42177 | 10704 ft | 265 kts | 2° |
| 2026-05-06 23:19 | 5.96579 | -75.42186 | 10409 ft | 266 kts | 3° |
| 2026-05-06 23:19 | 5.98426 | -75.42195 | 10105 ft | 261 kts | 2° |
| 2026-05-06 23:19 | 6.00203 | -75.42207 | 9792 ft | 251 kts | 3° |
| 2026-05-06 23:19 | 6.01919 | -75.42219 | 9488 ft | 241 kts | 1° |
| 2026-05-06 23:20 | 6.03551 | -75.42230 | 9216 ft | 228 kts | 2° |
| 2026-05-06 23:20 | 6.05099 | -75.42240 | 8932 ft | 216 kts | 3° |
| 2026-05-06 23:20 | 6.06529 | -75.42250 | 8699 ft | 195 kts | 2° |
| 2026-05-06 23:20 | 6.07830 | -75.42258 | 8446 ft | 181 kts | 3° |
| 2026-05-06 23:21 | 6.09061 | -75.42265 | 8231 ft | 174 kts | 2° |
| 2026-05-06 23:21 | 6.10266 | -75.42273 | 8009 ft | 172 kts | 4° |
| 2026-05-06 23:21 | 6.11460 | -75.42278 | 7782 ft | 170 kts | 1° |
| 2026-05-06 23:21 | 6.12639 | -75.42286 | 7527 ft | 167 kts | 2° |
| 2026-05-06 23:22 | 6.13780 | -75.42283 | 7264 ft | 163 kts | 0° |
| 2026-05-06 23:22 | 6.14891 | -75.42300 | 7031 ft | 157 kts | 2° |
| 2026-05-06 23:22 | 6.15865 | -75.42305 | 6979 ft | 104 kts | 358° |
| 2026-05-06 23:22 | 6.16434 | -75.42309 | 6985 ft | 72 kts | 359° |
| 2026-05-06 23:23 | 6.16784 | -75.42311 | 6995 ft | 39 kts | 360° |
| 2026-05-06 23:23 | 6.17026 | -75.42365 | 7010 ft | 34 kts | 333° |
| 2026-05-06 23:23 | 6.17186 | -75.42461 | 7017 ft | 21 kts | 328° |
| 2026-05-06 23:23 | 6.17279 | -75.42489 | 7020 ft | 13 kts | 359° |
| 2026-05-06 23:24 | 6.17370 | -75.42488 | 7017 ft | 12 kts | 0° |
| 2026-05-06 23:24 | 6.17450 | -75.42488 | 7020 ft | 10 kts | 0° |
| 2026-05-06 23:24 | 6.17501 | -75.42519 | 7020 ft | 11 kts | 272° |
| 2026-05-06 23:24 | 6.17437 | -75.42583 | 7020 ft | 14 kts | 219° |
| 2026-05-06 23:25 | 6.17362 | -75.42643 | 7019 ft | 14 kts | 219° |
| 2026-05-06 23:25 | 6.17346 | -75.42726 | 7019 ft | 14 kts | 297° |
| 2026-05-06 23:25 | 6.17374 | -75.42792 | 7020 ft | 7 kts | 288° |
| 2026-05-06 23:25 | 6.17369 | -75.42838 | 7020 ft | 7 kts | 216° |
| 2026-05-06 23:26 | 6.17322 | -75.42849 | 7021 ft | 6 kts | 192° |
| 2026-05-06 23:26 | 6.17308 | -75.42852 | 7019 ft | 1 kts | 192° |